Time;durP1;ratioP1;P1;durP2;ratioP2;P2;SDS_P1;SDS_P2;PMS_P1;PMS_P2;Temp;Humidity;BMP_temperature;BMP_pressure;BME280_temperature;BME280_humidity;BME280_pressure;Samples;Min_cycle;Max_cycle;Signal;HPM_P1;HPM_P2
2022/08/19 00:02:14;;;;;;;;;;;21.10;90.40;;;;;;5015717;28;19925;-81
2022/08/19 00:04:41;;;;;;;;;;;21.10;90.40;;;;;;5008086;28;19995;-81
2022/08/19 00:07:08;;;;;;;;;;;21.00;90.40;;;;;;4997201;28;19984;-81
2022/08/19 00:09:35;;;;;;;;;;;21.00;90.60;;;;;;5010844;28;19933;-81
2022/08/19 00:12:02;;;;;;;;;;;21.00;90.60;;;;;;5011462;28;19930;-82
2022/08/19 00:14:31;;;;;;;;;;;21.00;90.60;;;;;;5009938;28;19930;-81
2022/08/19 00:16:58;;;;;;;;;;;21.00;90.60;;;;;;5018499;28;19925;-82
2022/08/19 00:19:27;;;;;;;;;;;21.00;90.60;;;;;;4998589;28;19933;-82
2022/08/19 00:21:55;;;;;;;;;;;21.00;90.80;;;;;;4995964;28;19991;-82
2022/08/19 00:24:22;;;;;;;;;;;20.90;90.70;;;;;;5014658;28;19972;-82
2022/08/19 00:26:52;;;;;;;;;;;20.90;90.80;;;;;;5016816;28;19925;-81
2022/08/19 00:29:20;;;;;;;;;;;20.90;90.70;;;;;;4990429;28;20388;-81
2022/08/19 00:31:49;;;;;;;;;;;20.90;90.80;;;;;;4989691;28;20385;-82
2022/08/19 00:34:16;;;;;;;;;;;20.90;90.80;;;;;;5008340;28;20012;-81
2022/08/19 00:36:45;;;;;;;;;;;20.90;90.80;;;;;;5013021;28;19925;-81
2022/08/19 00:39:12;;;;;;;;;;;20.80;90.80;;;;;;4989285;28;20394;-81
2022/08/19 00:41:45;;;;;;;;;;;20.80;90.80;;;;;;4988313;28;19929;-81
2022/08/19 00:44:16;;;;;;;;;;;20.80;90.80;;;;;;4986653;28;20359;-82
2022/08/19 00:46:45;;;;;;;;;;;20.80;90.80;;;;;;5010348;28;19932;-81
2022/08/19 00:49:15;;;;;;;;;;;20.80;90.80;;;;;;4990055;28;19929;-81
2022/08/19 00:51:43;;;;;;;;;;;20.80;90.80;;;;;;5007744;28;19929;-81
2022/08/19 00:54:12;;;;;;;;;;;20.70;90.70;;;;;;4994157;28;20423;-82
2022/08/19 00:56:39;;;;;;;;;;;20.80;90.70;;;;;;5008196;28;20408;-82
2022/08/19 00:59:08;;;;;;;;;;;20.70;90.70;;;;;;5003318;28;20406;-82
2022/08/19 01:01:35;;;;;;;;;;;20.70;90.70;;;;;;5010202;28;19925;-81
2022/08/19 01:04:02;;;;;;;;;;;20.70;90.70;;;;;;5008392;28;19930;-82
2022/08/19 01:06:32;;;;;;;;;;;20.70;90.70;;;;;;5001643;28;20459;-82
2022/08/19 01:08:59;;;;;;;;;;;20.70;90.80;;;;;;5009619;28;20021;-82
2022/08/19 01:11:28;;;;;;;;;;;20.70;90.80;;;;;;5009669;28;19929;-81
2022/08/19 01:13:55;;;;;;;;;;;20.60;90.80;;;;;;5002243;28;19937;-82
2022/08/19 01:16:23;;;;;;;;;;;20.60;90.70;;;;;;5013534;28;19933;-81
2022/08/19 01:18:50;;;;;;;;;;;20.60;90.70;;;;;;5015555;28;19941;-81
2022/08/19 01:21:22;;;;;;;;;;;20.60;90.80;;;;;;4997575;28;19929;-81
2022/08/19 01:23:51;;;;;;;;;;;20.60;90.90;;;;;;5006764;28;20446;-81
2022/08/19 01:26:19;;;;;;;;;;;20.60;90.90;;;;;;5006518;28;19968;-81
2022/08/19 01:28:46;;;;;;;;;;;20.60;91.00;;;;;;4995387;28;19957;-81
2022/08/19 01:31:14;;;;;;;;;;;20.60;91.00;;;;;;5010560;28;19929;-82
2022/08/19 01:33:41;;;;;;;;;;;20.50;91.00;;;;;;5009529;28;19972;-82
2022/08/19 01:36:09;;;;;;;;;;;20.50;91.10;;;;;;5005414;28;20400;-82
2022/08/19 01:38:37;;;;;;;;;;;20.50;91.10;;;;;;5013524;28;19937;-82
2022/08/19 01:41:05;;;;;;;;;;;20.50;91.00;;;;;;5010157;28;20287;-81
2022/08/19 01:43:32;;;;;;;;;;;20.50;91.00;;;;;;4985919;28;20776;-82
2022/08/19 01:46:00;;;;;;;;;;;20.40;90.90;;;;;;5008349;28;19926;-81
2022/08/19 01:48:30;;;;;;;;;;;20.40;90.90;;;;;;5006056;28;19930;-82
2022/08/19 01:50:56;;;;;;;;;;;20.50;91.00;;;;;;5005794;28;20018;-81
2022/08/19 01:53:23;;;;;;;;;;;20.40;91.00;;;;;;5001442;28;20037;-82
2022/08/19 01:55:51;;;;;;;;;;;20.40;91.00;;;;;;4993543;28;19930;-80
2022/08/19 01:58:20;;;;;;;;;;;20.40;91.10;;;;;;5003027;28;19932;-81
2022/08/19 02:00:47;;;;;;;;;;;20.40;91.10;;;;;;5008305;28;19968;-82
2022/08/19 02:03:15;;;;;;;;;;;20.40;91.10;;;;;;5000138;28;19933;-81
2022/08/19 02:05:42;;;;;;;;;;;20.30;91.00;;;;;;5010738;28;19948;-81
2022/08/19 02:08:08;;;;;;;;;;;20.30;91.00;;;;;;4992149;28;19925;-82
2022/08/19 02:10:39;;;;;;;;;;;20.30;91.20;;;;;;5003905;28;19932;-80
2022/08/19 02:13:06;;;;;;;;;;;20.30;91.30;;;;;;5005061;28;19953;-80
2022/08/19 02:15:34;;;;;;;;;;;20.30;91.30;;;;;;5007055;28;19979;-79
2022/08/19 02:18:01;;;;;;;;;;;20.30;91.40;;;;;;4998064;28;19930;-79
2022/08/19 02:20:28;;;;;;;;;;;20.20;91.30;;;;;;5011702;28;20614;-78
2022/08/19 02:22:55;;;;;;;;;;;20.20;91.30;;;;;;5009350;28;20668;-78
2022/08/19 02:25:22;;;;;;;;;;;20.20;91.30;;;;;;4993107;28;19980;-79
2022/08/19 02:27:49;;;;;;;;;;;20.20;91.60;;;;;;5014183;28;19980;-80
2022/08/19 02:30:17;;;;;;;;;;;20.20;91.20;;;;;;4989316;28;20407;-79
2022/08/19 02:32:45;;;;;;;;;;;20.20;91.20;;;;;;5007539;28;19952;-79
2022/08/19 02:35:12;;;;;;;;;;;20.20;91.30;;;;;;4988752;28;19926;-79
2022/08/19 02:40:23;;;;;;;;;;;20.10;91.20;;;;;;4990180;28;20197;-79
2022/08/19 02:42:50;;;;;;;;;;;20.10;91.20;;;;;;5005262;28;19926;-79
2022/08/19 02:45:17;;;;;;;;;;;20.10;91.30;;;;;;5005378;28;20004;-79
2022/08/19 02:47:45;;;;;;;;;;;20.10;91.30;;;;;;5011526;28;19929;-79
2022/08/19 02:50:13;;;;;;;;;;;20.10;91.40;;;;;;5011522;28;20392;-78
2022/08/19 02:52:40;;;;;;;;;;;20.10;91.30;;;;;;5006504;28;20335;-78
2022/08/19 02:55:07;;;;;;;;;;;20.00;91.30;;;;;;5013426;28;20347;-79
2022/08/19 02:57:35;;;;;;;;;;;20.00;91.30;;;;;;5013950;28;19952;-79
2022/08/19 03:00:04;;;;;;;;;;;20.00;91.30;;;;;;4989279;28;19934;-79
2022/08/19 03:02:31;;;;;;;;;;;20.00;91.20;;;;;;4995322;28;20392;-79
2022/08/19 03:04:59;;;;;;;;;;;20.00;91.20;;;;;;5009550;28;20070;-79
2022/08/19 03:07:26;;;;;;;;;;;20.00;91.30;;;;;;5010182;28;19926;-79
2022/08/19 03:09:53;;;;;;;;;;;20.00;91.30;;;;;;5000638;28;20125;-79
2022/08/19 03:12:20;;;;;;;;;;;19.90;91.40;;;;;;5017778;28;19979;-79
2022/08/19 03:14:47;;;;;;;;;;;20.00;91.50;;;;;;5010662;28;20026;-79
2022/08/19 03:17:14;;;;;;;;;;;19.90;91.40;;;;;;5014680;28;20399;-78
2022/08/19 03:19:41;;;;;;;;;;;19.90;91.40;;;;;;5013406;28;19967;-79
2022/08/19 03:22:09;;;;;;;;;;;19.90;91.40;;;;;;5001125;28;19969;-79
2022/08/19 03:24:36;;;;;;;;;;;19.90;91.40;;;;;;5008918;28;19963;-78
2022/08/19 03:27:04;;;;;;;;;;;19.90;91.40;;;;;;4995862;28;20240;-79
2022/08/19 03:29:32;;;;;;;;;;;19.80;91.30;;;;;;4995915;28;19926;-78
2022/08/19 03:32:00;;;;;;;;;;;19.90;91.40;;;;;;5014659;28;20405;-79
2022/08/19 03:34:28;;;;;;;;;;;19.80;91.40;;;;;;5009648;28;19930;-79
2022/08/19 03:36:55;;;;;;;;;;;19.80;91.40;;;;;;5009990;28;19973;-78
2022/08/19 03:39:24;;;;;;;;;;;19.80;91.40;;;;;;5016592;28;19940;-78
2022/08/19 03:41:52;;;;;;;;;;;19.80;91.40;;;;;;5001893;28;20448;-79
2022/08/19 03:44:20;;;;;;;;;;;19.80;91.50;;;;;;4993569;28;19932;-78
2022/08/19 03:46:48;;;;;;;;;;;19.80;91.50;;;;;;4997102;28;20444;-78
2022/08/19 03:49:15;;;;;;;;;;;19.80;91.50;;;;;;5015821;28;19929;-79
2022/08/19 03:51:42;;;;;;;;;;;19.80;91.50;;;;;;5017855;28;20396;-79
2022/08/19 03:54:10;;;;;;;;;;;19.70;91.50;;;;;;5007192;28;19936;-79
2022/08/19 03:56:40;;;;;;;;;;;19.70;91.50;;;;;;4998521;28;19925;-78
2022/08/19 03:59:07;;;;;;;;;;;19.70;91.50;;;;;;4997809;28;19926;-79
2022/08/19 04:01:35;;;;;;;;;;;19.70;91.50;;;;;;5013845;28;19929;-79
2022/08/19 04:04:02;;;;;;;;;;;19.70;91.60;;;;;;5008051;28;19930;-79
2022/08/19 04:06:30;;;;;;;;;;;19.70;91.50;;;;;;4993522;28;19992;-78
2022/08/19 04:08:58;;;;;;;;;;;19.70;91.50;;;;;;5013967;28;20008;-79
2022/08/19 04:11:26;;;;;;;;;;;19.60;91.50;;;;;;5008851;28;20280;-79
2022/08/19 04:13:54;;;;;;;;;;;19.60;91.60;;;;;;5014324;28;20062;-79
2022/08/19 04:16:22;;;;;;;;;;;19.60;91.60;;;;;;5006279;28;19926;-78
2022/08/19 04:18:50;;;;;;;;;;;19.60;91.50;;;;;;5013192;28;20012;-78
2022/08/19 04:21:18;;;;;;;;;;;19.60;91.60;;;;;;5014823;28;20016;-78
2022/08/19 04:23:46;;;;;;;;;;;19.60;91.60;;;;;;5009717;28;19969;-78
2022/08/19 04:26:13;;;;;;;;;;;19.60;91.60;;;;;;4985949;28;19949;-79
2022/08/19 04:28:40;;;;;;;;;;;19.60;91.60;;;;;;5013255;28;19952;-78
2022/08/19 04:31:13;;;;;;;;;;;19.60;91.60;;;;;;5013470;28;19925;-78
2022/08/19 04:33:40;;;;;;;;;;;19.60;91.70;;;;;;5004161;28;19979;-78
2022/08/19 04:36:07;;;;;;;;;;;19.60;91.60;;;;;;5007109;28;20312;-78
2022/08/19 04:38:34;;;;;;;;;;;19.50;91.60;;;;;;5007229;28;19949;-78
2022/08/19 04:43:48;;;;;;;;;;;19.50;91.50;;;;;;5010896;28;19925;-78
2022/08/19 04:46:17;;;;;;;;;;;19.50;91.50;;;;;;5006365;28;20107;-78
2022/08/19 04:48:43;;;;;;;;;;;19.50;91.50;;;;;;5012999;28;19926;-78
2022/08/19 04:51:12;;;;;;;;;;;19.50;91.50;;;;;;5013415;28;19953;-78
2022/08/19 04:53:41;;;;;;;;;;;19.50;91.50;;;;;;5009012;28;19926;-78
2022/08/19 04:56:09;;;;;;;;;;;19.50;91.50;;;;;;4995243;28;19929;-79
2022/08/19 04:58:36;;;;;;;;;;;19.50;91.50;;;;;;5011720;28;19985;-78
2022/08/19 05:01:03;;;;;;;;;;;19.50;91.50;;;;;;4986677;28;19991;-79
2022/08/19 05:03:33;;;;;;;;;;;19.40;91.50;;;;;;5004416;28;19961;-78
2022/08/19 05:06:04;;;;;;;;;;;19.40;91.40;;;;;;5014806;28;20215;-78
2022/08/19 05:08:31;;;;;;;;;;;19.40;91.40;;;;;;5009206;28;19980;-78
2022/08/19 05:10:58;;;;;;;;;;;19.40;91.50;;;;;;5008721;28;20466;-78
2022/08/19 05:13:25;;;;;;;;;;;19.40;91.50;;;;;;5008117;28;19984;-79
2022/08/19 05:15:54;;;;;;;;;;;19.40;91.50;;;;;;5012055;28;19925;-78
2022/08/19 05:23:52;;;;;;;;;;;19.40;91.50;;;;;;5011089;28;19925;-78
2022/08/19 05:26:19;;;;;;;;;;;19.40;91.50;;;;;;4991652;28;20472;-78
2022/08/19 05:28:46;;;;;;;;;;;19.30;91.80;;;;;;5015735;28;19932;-79
2022/08/19 05:31:13;;;;;;;;;;;19.40;91.50;;;;;;5008012;28;19989;-79
2022/08/19 05:33:40;;;;;;;;;;;19.30;91.50;;;;;;5012679;28;20325;-78
2022/08/19 05:36:08;;;;;;;;;;;19.30;91.50;;;;;;5005221;28;20384;-79
2022/08/19 05:38:36;;;;;;;;;;;19.30;91.50;;;;;;5009495;28;19930;-79
2022/08/19 05:41:07;;;;;;;;;;;19.30;91.50;;;;;;4993140;28;19992;-79
2022/08/19 05:43:34;;;;;;;;;;;19.30;91.40;;;;;;4995835;28;19926;-79
2022/08/19 05:46:04;;;;;;;;;;;19.30;91.60;;;;;;4990418;28;20372;-79
2022/08/19 05:48:31;;;;;;;;;;;19.30;91.70;;;;;;5012573;28;19929;-79
2022/08/19 05:50:58;;;;;;;;;;;19.30;91.70;;;;;;4997638;28;19926;-78
2022/08/19 05:53:26;;;;;;;;;;;19.30;91.60;;;;;;5002982;28;20016;-78
2022/08/19 05:55:53;;;;;;;;;;;19.30;91.60;;;;;;5005204;28;19949;-78
2022/08/19 05:58:20;;;;;;;;;;;19.30;91.60;;;;;;5010217;28;19933;-79
2022/08/19 06:00:47;;;;;;;;;;;19.30;91.60;;;;;;5010553;28;20022;-79
2022/08/19 06:03:13;;;;;;;;;;;19.30;91.90;;;;;;5004364;28;19929;-79
2022/08/19 06:05:41;;;;;;;;;;;19.30;91.60;;;;;;5015071;28;19968;-78
2022/08/19 06:08:08;;;;;;;;;;;19.20;91.60;;;;;;5010396;28;19925;-79
2022/08/19 06:10:36;;;;;;;;;;;19.20;91.60;;;;;;5004458;28;19966;-79
2022/08/19 06:13:05;;;;;;;;;;;19.20;91.60;;;;;;5005022;28;19933;-79
2022/08/19 06:15:32;;;;;;;;;;;19.20;91.60;;;;;;5003281;28;19929;-79
2022/08/19 06:17:59;;;;;;;;;;;19.20;91.60;;;;;;5002292;28;19949;-79
2022/08/19 06:20:26;;;;;;;;;;;19.20;91.60;;;;;;5004769;28;19937;-78
2022/08/19 06:22:53;;;;;;;;;;;19.20;91.60;;;;;;5011804;28;19971;-79
2022/08/19 06:25:20;;;;;;;;;;;19.20;91.60;;;;;;5004465;28;19932;-79
2022/08/19 06:27:48;;;;;;;;;;;19.20;91.70;;;;;;4999254;28;19929;-79
2022/08/19 06:30:15;;;;;;;;;;;19.10;91.70;;;;;;4989608;28;19948;-80
2022/08/19 06:32:42;;;;;;;;;;;19.10;91.70;;;;;;5011028;28;20439;-79
2022/08/19 06:35:09;;;;;;;;;;;19.10;91.70;;;;;;5006977;28;19934;-79
2022/08/19 06:37:37;;;;;;;;;;;19.20;91.90;;;;;;5008486;28;19925;-79
2022/08/19 06:40:04;;;;;;;;;;;19.20;91.80;;;;;;5009253;28;19993;-80
2022/08/19 06:42:31;;;;;;;;;;;19.20;91.90;;;;;;5008109;28;19980;-79
2022/08/19 06:45:02;;;;;;;;;;;19.10;91.90;;;;;;5002331;28;19925;-79
2022/08/19 06:47:30;;;;;;;;;;;19.20;91.90;;;;;;5014018;28;19972;-79
2022/08/19 06:49:59;;;;;;;;;;;19.10;91.90;;;;;;4994579;28;19936;-79
2022/08/19 06:52:26;;;;;;;;;;;19.10;92.10;;;;;;5008229;28;19983;-79
2022/08/19 06:54:55;;;;;;;;;;;19.10;92.00;;;;;;4995045;28;19972;-79
2022/08/19 06:57:22;;;;;;;;;;;19.10;92.10;;;;;;5016802;28;19926;-79
2022/08/19 06:59:49;;;;;;;;;;;19.10;92.00;;;;;;5007855;28;20359;-79
2022/08/19 07:02:18;;;;;;;;;;;19.10;92.00;;;;;;5013857;28;20020;-79
2022/08/19 07:04:45;;;;;;;;;;;19.10;92.00;;;;;;5017379;28;19932;-79
2022/08/19 07:07:14;;;;;;;;;;;19.10;92.10;;;;;;5010428;28;19926;-80
2022/08/19 07:09:42;;;;;;;;;;;19.10;92.10;;;;;;5006927;28;19989;-79
2022/08/19 07:12:10;;;;;;;;;;;19.10;92.10;;;;;;4993011;28;20321;-80
2022/08/19 07:14:38;;;;;;;;;;;19.00;92.10;;;;;;5006244;28;19933;-79
2022/08/19 07:17:06;;;;;;;;;;;19.00;92.10;;;;;;5011962;28;20315;-79
2022/08/19 07:19:35;;;;;;;;;;;19.00;92.20;;;;;;5008007;28;20020;-80
2022/08/19 07:22:02;;;;;;;;;;;19.00;92.20;;;;;;5005905;28;19926;-79
2022/08/19 07:24:30;;;;;;;;;;;19.00;92.20;;;;;;4995056;28;19949;-80
2022/08/19 07:27:02;;;;;;;;;;;19.00;92.40;;;;;;5012038;28;19936;-80
2022/08/19 07:29:30;;;;;;;;;;;19.00;92.60;;;;;;5006799;28;19926;-80
2022/08/19 07:31:58;;;;;;;;;;;19.00;92.60;;;;;;5005069;28;19956;-79
2022/08/19 07:34:25;;;;;;;;;;;19.00;92.80;;;;;;4993162;28;20365;-79
2022/08/19 07:36:55;;;;;;;;;;;19.00;92.70;;;;;;5009279;28;19937;-80
2022/08/19 07:39:23;;;;;;;;;;;19.00;92.60;;;;;;5004667;28;19953;-80
2022/08/19 07:41:51;;;;;;;;;;;19.00;92.70;;;;;;4992233;28;19925;-79
2022/08/19 07:44:19;;;;;;;;;;;19.00;92.80;;;;;;5012771;28;19941;-80
2022/08/19 07:46:49;;;;;;;;;;;19.00;92.90;;;;;;5005868;28;19980;-79
2022/08/19 07:49:18;;;;;;;;;;;19.00;93.00;;;;;;4997775;28;19979;-80
2022/08/19 07:51:46;;;;;;;;;;;19.00;93.10;;;;;;5010006;28;19999;-80
2022/08/19 07:54:14;;;;;;;;;;;19.00;93.20;;;;;;5013755;28;20015;-80
2022/08/19 07:56:41;;;;;;;;;;;19.00;93.10;;;;;;5009913;28;19926;-79
2022/08/19 07:59:08;;;;;;;;;;;19.00;93.40;;;;;;4991569;28;19925;-79
2022/08/19 08:01:35;;;;;;;;;;;19.00;93.20;;;;;;5010289;28;19925;-80
2022/08/19 08:09:34;;;;;;;;;;;18.90;93.10;;;;;;5003881;28;19921;-79
2022/08/19 08:12:04;;;;;;;;;;;19.00;93.20;;;;;;4993110;28;19925;-79
2022/08/19 08:14:32;;;;;;;;;;;18.90;93.00;;;;;;4991707;28;19926;-79
2022/08/19 08:16:59;;;;;;;;;;;18.90;93.00;;;;;;4988078;28;19976;-79
2022/08/19 08:19:28;;;;;;;;;;;18.90;92.90;;;;;;4986460;28;19933;-80
2022/08/19 08:21:55;;;;;;;;;;;18.90;93.10;;;;;;5002873;28;19925;-79
2022/08/19 08:24:22;;;;;;;;;;;18.90;93.10;;;;;;5003462;28;19929;-79
2022/08/19 08:26:50;;;;;;;;;;;18.90;93.30;;;;;;5008882;28;19984;-79
2022/08/19 08:29:19;;;;;;;;;;;18.90;93.30;;;;;;5010033;28;20417;-80
2022/08/19 08:31:46;;;;;;;;;;;18.90;93.30;;;;;;4990669;28;19932;-80
2022/08/19 08:34:14;;;;;;;;;;;18.90;93.40;;;;;;4990289;28;20414;-80
2022/08/19 08:36:42;;;;;;;;;;;18.90;93.50;;;;;;5009662;28;19988;-80
2022/08/19 08:39:10;;;;;;;;;;;18.80;93.60;;;;;;5004861;28;20384;-80
2022/08/19 08:41:41;;;;;;;;;;;18.80;93.60;;;;;;5005923;28;20311;-80
2022/08/19 08:44:14;;;;;;;;;;;18.80;93.70;;;;;;5006505;28;20419;-80
2022/08/19 08:46:45;;;;;;;;;;;18.80;93.80;;;;;;5005535;28;19926;-80
2022/08/19 08:49:20;;;;;;;;;;;18.80;93.70;;;;;;5004253;28;19940;-80
2022/08/19 08:51:49;;;;;;;;;;;18.80;93.70;;;;;;4988370;28;19936;-79
2022/08/19 08:54:18;;;;;;;;;;;18.80;93.60;;;;;;5000128;28;19930;-80
2022/08/19 08:56:45;;;;;;;;;;;18.80;93.60;;;;;;5007012;28;19926;-80
2022/08/19 08:59:18;;;;;;;;;;;18.80;93.60;;;;;;4991803;28;20384;-80
2022/08/19 09:01:45;;;;;;;;;;;18.80;93.50;;;;;;5010197;28;19925;-80
2022/08/19 09:04:13;;;;;;;;;;;18.80;93.60;;;;;;4983184;28;19951;-80
2022/08/19 09:06:44;;;;;;;;;;;18.80;93.80;;;;;;5006236;28;19926;-81
2022/08/19 09:09:15;;;;;;;;;;;18.80;94.00;;;;;;5009150;28;19925;-80
2022/08/19 09:11:49;;;;;;;;;;;18.80;94.00;;;;;;4996428;28;19972;-81
2022/08/19 09:14:23;;;;;;;;;;;18.80;94.30;;;;;;4998996;28;20640;-80
2022/08/19 09:16:51;;;;;;;;;;;18.80;93.90;;;;;;5006939;28;20087;-80
2022/08/19 09:19:18;;;;;;;;;;;18.70;94.00;;;;;;4984489;28;20379;-81
2022/08/19 09:21:46;;;;;;;;;;;18.70;94.10;;;;;;4997496;28;20391;-80
2022/08/19 09:24:13;;;;;;;;;;;18.80;94.10;;;;;;4998346;28;19938;-80
2022/08/19 09:26:40;;;;;;;;;;;18.70;94.40;;;;;;5002789;28;19926;-80
2022/08/19 09:29:07;;;;;;;;;;;18.70;94.30;;;;;;4981552;28;20215;-80
2022/08/19 09:31:35;;;;;;;;;;;18.70;94.40;;;;;;4990654;28;19989;-80
2022/08/19 09:34:04;;;;;;;;;;;18.70;94.40;;;;;;5010151;28;19940;-79
2022/08/19 09:36:32;;;;;;;;;;;18.70;94.50;;;;;;5008020;28;20447;-80
2022/08/19 09:39:00;;;;;;;;;;;18.70;94.60;;;;;;4987909;28;19929;-80
2022/08/19 09:41:27;;;;;;;;;;;18.70;94.80;;;;;;5009339;28;20012;-81
2022/08/19 09:43:55;;;;;;;;;;;18.70;94.80;;;;;;4992183;28;19993;-80
2022/08/19 09:46:23;;;;;;;;;;;18.60;94.90;;;;;;5009261;28;19971;-79
2022/08/19 09:48:51;;;;;;;;;;;18.70;95.00;;;;;;5009829;28;19929;-81
2022/08/19 09:51:20;;;;;;;;;;;18.70;95.00;;;;;;5000185;28;19965;-80
2022/08/19 09:53:49;;;;;;;;;;;18.60;95.00;;;;;;5006664;28;19925;-80
2022/08/19 09:56:17;;;;;;;;;;;18.60;95.00;;;;;;5003355;28;19925;-80
2022/08/19 09:58:44;;;;;;;;;;;18.70;95.10;;;;;;5003150;28;20048;-80
2022/08/19 10:01:16;;;;;;;;;;;18.60;95.10;;;;;;5000725;28;19932;-79
2022/08/19 10:03:43;;;;;;;;;;;18.60;95.50;;;;;;5009562;28;19926;-80
2022/08/19 10:06:11;;;;;;;;;;;18.60;95.10;;;;;;5009820;28;20306;-80
2022/08/19 10:08:39;;;;;;;;;;;18.70;95.30;;;;;;5009030;28;19972;-79
2022/08/19 10:11:06;;;;;;;;;;;18.70;95.30;;;;;;5003692;28;19925;-80
2022/08/19 10:13:34;;;;;;;;;;;18.70;95.10;;;;;;5013285;28;19968;-79
2022/08/19 10:16:04;;;;;;;;;;;18.70;95.10;;;;;;5009459;28;19979;-79
2022/08/19 10:18:33;;;;;;;;;;;18.70;95.20;;;;;;5013827;28;20096;-79
2022/08/19 10:21:07;;;;;;;;;;;18.70;95.20;;;;;;5011749;28;19925;-79
2022/08/19 10:23:36;;;;;;;;;;;18.70;95.20;;;;;;4998995;28;19926;-79
2022/08/19 10:26:05;;;;;;;;;;;18.70;95.40;;;;;;5006863;28;21254;-79
2022/08/19 10:28:33;;;;;;;;;;;18.70;95.30;;;;;;4994137;28;19955;-79
2022/08/19 10:31:04;;;;;;;;;;;18.70;95.30;;;;;;5005850;28;20457;-79
2022/08/19 10:33:31;;;;;;;;;;;18.70;95.30;;;;;;4989362;28;19932;-79
2022/08/19 10:36:00;;;;;;;;;;;18.70;95.20;;;;;;5001372;28;19929;-79
2022/08/19 10:38:26;;;;;;;;;;;18.70;95.30;;;;;;5011839;28;19929;-79
2022/08/19 10:40:55;;;;;;;;;;;18.70;95.40;;;;;;4992691;28;19949;-79
2022/08/19 10:43:22;;;;;;;;;;;18.70;95.40;;;;;;4983391;28;19933;-79
2022/08/19 10:45:52;;;;;;;;;;;18.60;95.30;;;;;;5002792;28;20377;-79
2022/08/19 10:48:19;;;;;;;;;;;18.70;95.30;;;;;;5004536;28;19929;-79
2022/08/19 10:53:38;;;;;;;;;;;18.70;95.20;;;;;;4953313;28;19949;-80
2022/08/19 10:58:51;;;;;;;;;;;18.70;95.20;;;;;;5005239;28;20359;-79
2022/08/19 11:01:19;;;;;;;;;;;18.70;95.20;;;;;;5002431;28;20459;-80
2022/08/19 11:03:46;;;;;;;;;;;18.70;95.20;;;;;;5010509;28;20002;-80
2022/08/19 11:06:12;;;;;;;;;;;18.70;95.30;;;;;;5013881;28;19925;-80
2022/08/19 11:08:40;;;;;;;;;;;18.70;95.60;;;;;;4989171;28;20355;-80
2022/08/19 11:11:09;;;;;;;;;;;18.70;95.60;;;;;;4998040;28;20155;-80
2022/08/19 11:13:37;;;;;;;;;;;18.70;95.80;;;;;;5005321;28;19925;-79
2022/08/19 11:16:05;;;;;;;;;;;18.70;95.90;;;;;;5003577;28;19992;-80
2022/08/19 11:18:32;;;;;;;;;;;18.70;95.80;;;;;;5003828;28;19929;-80
2022/08/19 11:21:06;;;;;;;;;;;18.70;95.70;;;;;;5007175;28;19965;-80
2022/08/19 11:23:33;;;;;;;;;;;18.70;95.60;;;;;;5000464;28;19929;-80
2022/08/19 11:26:00;;;;;;;;;;;18.70;95.60;;;;;;4995365;28;20044;-80
2022/08/19 11:28:29;;;;;;;;;;;18.70;95.60;;;;;;4992906;28;19930;-80
2022/08/19 11:30:56;;;;;;;;;;;18.70;95.70;;;;;;4992050;28;20454;-80
2022/08/19 11:33:23;;;;;;;;;;;18.70;95.70;;;;;;5006540;28;19936;-80
2022/08/19 11:35:50;;;;;;;;;;;18.70;95.70;;;;;;5009709;28;19933;-80
2022/08/19 11:38:18;;;;;;;;;;;18.70;95.90;;;;;;5008736;28;19936;-81
2022/08/19 11:40:45;;;;;;;;;;;18.70;95.90;;;;;;5005827;28;20028;-80
2022/08/19 11:43:11;;;;;;;;;;;18.70;96.00;;;;;;4991210;28;19934;-80
2022/08/19 11:45:40;;;;;;;;;;;18.70;96.00;;;;;;5008880;28;19932;-80
2022/08/19 11:48:07;;;;;;;;;;;18.70;96.00;;;;;;5005082;28;19926;-80
2022/08/19 11:50:33;;;;;;;;;;;18.70;96.10;;;;;;4998740;28;19925;-80
2022/08/19 11:53:00;;;;;;;;;;;18.70;96.10;;;;;;5011737;28;19936;-81
2022/08/19 11:55:27;;;;;;;;;;;18.70;96.10;;;;;;5009923;28;19932;-81
2022/08/19 11:57:54;;;;;;;;;;;18.70;96.20;;;;;;4999262;28;20399;-81
2022/08/19 12:00:21;;;;;;;;;;;18.70;96.10;;;;;;5010094;28;20426;-80
2022/08/19 12:02:49;;;;;;;;;;;18.70;96.00;;;;;;5005491;28;19933;-81
2022/08/19 12:05:16;;;;;;;;;;;18.70;96.10;;;;;;5011159;28;19925;-81
2022/08/19 12:07:43;;;;;;;;;;;18.70;96.20;;;;;;4988184;28;20415;-81
2022/08/19 12:10:10;;;;;;;;;;;18.70;96.40;;;;;;5005712;28;20134;-81
2022/08/19 12:12:42;;;;;;;;;;;18.70;96.40;;;;;;5002509;28;19933;-81
2022/08/19 12:15:10;;;;;;;;;;;18.70;96.40;;;;;;5004567;28;20299;-81
2022/08/19 12:17:37;;;;;;;;;;;18.70;96.30;;;;;;4991702;28;19932;-80
2022/08/19 12:20:07;;;;;;;;;;;18.60;96.20;;;;;;5010381;28;20604;-81
2022/08/19 12:22:34;;;;;;;;;;;18.70;96.20;;;;;;5010717;28;19961;-81
2022/08/19 12:25:01;;;;;;;;;;;18.70;96.40;;;;;;4987232;28;19926;-81
2022/08/19 12:27:28;;;;;;;;;;;18.70;96.30;;;;;;5002501;28;20029;-81
2022/08/19 12:29:55;;;;;;;;;;;18.70;96.30;;;;;;5003663;28;19926;-80
2022/08/19 12:32:22;;;;;;;;;;;18.70;96.30;;;;;;4999974;28;19976;-81
2022/08/19 12:34:48;;;;;;;;;;;18.60;96.40;;;;;;4987430;28;19937;-83
2022/08/19 12:37:17;;;;;;;;;;;18.70;96.60;;;;;;5007316;28;20304;-83
2022/08/19 12:39:44;;;;;;;;;;;18.60;96.70;;;;;;5004500;28;20311;-83
2022/08/19 12:42:11;;;;;;;;;;;18.70;96.80;;;;;;4984961;28;20487;-83
2022/08/19 12:44:39;;;;;;;;;;;18.60;96.80;;;;;;5000445;28;19976;-83
2022/08/19 12:47:06;;;;;;;;;;;18.60;96.80;;;;;;5002834;28;19933;-81
2022/08/19 12:49:34;;;;;;;;;;;18.70;96.80;;;;;;5006334;28;19929;-81
2022/08/19 12:52:01;;;;;;;;;;;18.60;96.70;;;;;;5007644;28;19929;-81
2022/08/19 12:54:30;;;;;;;;;;;18.70;96.80;;;;;;5007168;28;19929;-82
2022/08/19 12:56:57;;;;;;;;;;;18.70;96.70;;;;;;5004812;28;19936;-80
2022/08/19 12:59:24;;;;;;;;;;;18.70;96.80;;;;;;4986544;28;20407;-81
2022/08/19 13:01:50;;;;;;;;;;;18.60;96.90;;;;;;5010091;28;19929;-82
2022/08/19 13:04:17;;;;;;;;;;;18.70;97.00;;;;;;4989771;28;20359;-81
2022/08/19 13:06:44;;;;;;;;;;;18.60;96.80;;;;;;5010654;28;19933;-81
2022/08/19 13:09:11;;;;;;;;;;;18.60;97.00;;;;;;4999651;28;19972;-81
2022/08/19 13:11:39;;;;;;;;;;;18.60;97.00;;;;;;5011553;28;19932;-81
2022/08/19 13:14:06;;;;;;;;;;;18.60;96.90;;;;;;5000014;28;19972;-81
2022/08/19 13:16:33;;;;;;;;;;;18.60;96.90;;;;;;5001444;28;20290;-81
2022/08/19 13:19:02;;;;;;;;;;;18.70;97.10;;;;;;4999266;28;20381;-81
2022/08/19 13:21:29;;;;;;;;;;;18.70;97.20;;;;;;5009383;28;19925;-81
2022/08/19 13:23:56;;;;;;;;;;;18.60;97.10;;;;;;4985750;28;19976;-81
2022/08/19 13:26:23;;;;;;;;;;;18.70;97.20;;;;;;4997979;28;19925;-79
2022/08/19 13:34:27;;;;;;;;;;;18.60;96.80;;;;;;5005783;28;19925;-81
2022/08/19 13:36:54;;;;;;;;;;;18.60;96.80;;;;;;4992620;28;19925;-82
2022/08/19 13:39:22;;;;;;;;;;;18.60;96.70;;;;;;5009529;28;19935;-81
2022/08/19 13:41:49;;;;;;;;;;;18.70;96.80;;;;;;4990801;28;19929;-81
2022/08/19 13:44:18;;;;;;;;;;;18.60;96.80;;;;;;4997888;28;19936;-81
2022/08/19 13:46:45;;;;;;;;;;;18.60;96.80;;;;;;5005690;28;19926;-81
2022/08/19 13:49:14;;;;;;;;;;;18.60;96.80;;;;;;5002548;28;19926;-81
2022/08/19 13:51:41;;;;;;;;;;;18.60;96.90;;;;;;5009268;28;20025;-81
2022/08/19 13:54:09;;;;;;;;;;;18.70;97.00;;;;;;5001323;28;19925;-81
2022/08/19 13:56:40;;;;;;;;;;;18.60;97.10;;;;;;4986003;28;19933;-81
2022/08/19 13:59:07;;;;;;;;;;;18.60;97.10;;;;;;4986637;28;19925;-81
2022/08/19 14:01:35;;;;;;;;;;;18.60;97.10;;;;;;4993358;28;19964;-81
2022/08/19 14:04:02;;;;;;;;;;;18.60;97.10;;;;;;5005071;28;19992;-82
2022/08/19 14:06:28;;;;;;;;;;;18.60;97.10;;;;;;5005814;28;20024;-81
2022/08/19 14:08:55;;;;;;;;;;;18.70;97.10;;;;;;5002885;28;20444;-81
2022/08/19 14:11:23;;;;;;;;;;;18.60;97.10;;;;;;5008658;28;19929;-81
2022/08/19 14:13:50;;;;;;;;;;;18.60;97.20;;;;;;4999987;28;20399;-81
2022/08/19 14:16:16;;;;;;;;;;;18.70;97.40;;;;;;5009082;28;19972;-81
2022/08/19 14:18:45;;;;;;;;;;;18.70;97.40;;;;;;4991278;28;19926;-82
2022/08/19 14:21:16;;;;;;;;;;;18.70;97.60;;;;;;4987755;28;19952;-82
2022/08/19 14:23:43;;;;;;;;;;;18.60;97.60;;;;;;4998984;28;19988;-82
2022/08/19 14:26:11;;;;;;;;;;;18.70;97.60;;;;;;4988951;28;19926;-81
2022/08/19 14:28:40;;;;;;;;;;;18.60;97.50;;;;;;4991096;28;19987;-81
2022/08/19 14:31:07;;;;;;;;;;;18.60;97.50;;;;;;5010850;28;20024;-82
2022/08/19 14:33:34;;;;;;;;;;;18.70;97.50;;;;;;4985889;28;20005;-82
2022/08/19 14:36:02;;;;;;;;;;;18.70;97.40;;;;;;5003227;28;20363;-81
2022/08/19 14:38:31;;;;;;;;;;;18.60;97.30;;;;;;5005950;28;20363;-82
2022/08/19 14:41:07;;;;;;;;;;;18.60;97.30;;;;;;5005096;28;20017;-81
2022/08/19 14:43:34;;;;;;;;;;;18.60;97.30;;;;;;5000914;28;20548;-82
2022/08/19 14:46:01;;;;;;;;;;;18.60;97.30;;;;;;5004291;28;19929;-82
2022/08/19 14:48:28;;;;;;;;;;;18.60;97.20;;;;;;4983165;28;20192;-82